KMTP/MTP METAR and TAF weather

Enter ICAO airport designator
Station Type Date Time Source
KMTP METAR 2024/02/26 15:54 UTC NOAA

KMTP 261554Z AUTO 21009G18KT 07/03 A3005 RMK AO1 SLP177 T00720028


Station Type Date Time Source
KMTP Decoded METAR 2024/02/26 15:54 UTC NOAA

MONTAUK AIRPORT, NY, United States (KMTP) 41-04N 071-55W 2M
Feb 26, 2024 - 10:54 AM EST / 2024.02.26 1554 UTC
Wind: from the SSW (210 degrees) at 10 MPH (9 KT) gusting to 21 MPH (18 KT):0
Temperature: 45.0 F (7.2 C)
Dew Point: 37.0 F (2.8 C)
Relative Humidity: 73%
Pressure (altimeter): 30.05 in. Hg (1017 hPa)
ob: KMTP 261554Z AUTO 21009G18KT 07/03 A3005 RMK AO1 SLP177 T00720028
cycle: 16

Station Type Date Time Source
KMTP TAF UTC NOAA

Error!

Example: see airport list